sensor_id;sensor_type;location;lat;lon;timestamp;P1;durP1;ratioP1;P2;durP2;ratioP2
18021;SDS011;9136;48.822;7.966;2023-06-19T00:02:34;16.52;;;15.73;;
18021;SDS011;9136;48.822;7.966;2023-06-19T00:05:22;16.33;;;15.50;;
18021;SDS011;9136;48.822;7.966;2023-06-19T00:08:11;15.77;;;15.02;;
18021;SDS011;9136;48.822;7.966;2023-06-19T00:11:00;15.90;;;15.20;;
18021;SDS011;9136;48.822;7.966;2023-06-19T00:13:48;17.30;;;16.50;;
18021;SDS011;9136;48.822;7.966;2023-06-19T00:16:36;17.58;;;16.77;;
18021;SDS011;9136;48.822;7.966;2023-06-19T00:19:26;16.30;;;15.60;;
18021;SDS011;9136;48.822;7.966;2023-06-19T00:22:14;16.92;;;16.15;;
18021;SDS011;9136;48.822;7.966;2023-06-19T00:25:03;16.77;;;16.05;;
18021;SDS011;9136;48.822;7.966;2023-06-19T00:27:53;16.25;;;15.55;;
18021;SDS011;9136;48.822;7.966;2023-06-19T00:30:40;17.58;;;16.73;;
18021;SDS011;9136;48.822;7.966;2023-06-19T00:33:28;17.13;;;16.33;;
18021;SDS011;9136;48.822;7.966;2023-06-19T00:36:16;16.92;;;16.13;;
18021;SDS011;9136;48.822;7.966;2023-06-19T00:39:06;17.27;;;16.48;;
18021;SDS011;9136;48.822;7.966;2023-06-19T00:41:54;17.02;;;16.23;;
18021;SDS011;9136;48.822;7.966;2023-06-19T00:44:44;16.48;;;15.75;;
18021;SDS011;9136;48.822;7.966;2023-06-19T00:47:33;16.77;;;15.98;;
18021;SDS011;9136;48.822;7.966;2023-06-19T00:50:22;15.52;;;14.73;;
18021;SDS011;9136;48.822;7.966;2023-06-19T01:04:25;18.42;;;17.63;;
18021;SDS011;9136;48.822;7.966;2023-06-19T01:07:27;19.90;;;19.00;;
18021;SDS011;9136;48.822;7.966;2023-06-19T01:10:23;18.10;;;17.30;;
18021;SDS011;9136;48.822;7.966;2023-06-19T01:13:19;20.30;;;19.23;;
18021;SDS011;9136;48.822;7.966;2023-06-19T01:16:12;18.85;;;17.95;;
18021;SDS011;9136;48.822;7.966;2023-06-19T01:20:38;16.77;;;15.98;;
18021;SDS011;9136;48.822;7.966;2023-06-19T01:22:23;19.13;;;17.83;;
18021;SDS011;9136;48.822;7.966;2023-06-19T01:25:13;18.95;;;18.15;;
18021;SDS011;9136;48.822;7.966;2023-06-19T01:28:14;18.33;;;17.52;;
18021;SDS011;9136;48.822;7.966;2023-06-19T01:31:10;18.67;;;17.85;;
18021;SDS011;9136;48.822;7.966;2023-06-19T01:34:06;19.55;;;18.65;;
18021;SDS011;9136;48.822;7.966;2023-06-19T01:36:57;19.05;;;18.15;;
18021;SDS011;9136;48.822;7.966;2023-06-19T01:39:50;17.40;;;16.60;;
18021;SDS011;9136;48.822;7.966;2023-06-19T01:42:38;18.63;;;17.73;;
18021;SDS011;9136;48.822;7.966;2023-06-19T01:45:27;18.23;;;17.42;;
18021;SDS011;9136;48.822;7.966;2023-06-19T01:48:16;18.10;;;17.30;;
18021;SDS011;9136;48.822;7.966;2023-06-19T01:51:04;17.48;;;16.67;;
18021;SDS011;9136;48.822;7.966;2023-06-19T01:53:54;18.35;;;17.52;;
18021;SDS011;9136;48.822;7.966;2023-06-19T01:56:46;20.20;;;17.90;;
18021;SDS011;9136;48.822;7.966;2023-06-19T01:59:34;18.58;;;17.70;;
18021;SDS011;9136;48.822;7.966;2023-06-19T02:02:22;17.55;;;16.75;;
18021;SDS011;9136;48.822;7.966;2023-06-19T02:05:11;17.90;;;17.10;;
18021;SDS011;9136;48.822;7.966;2023-06-19T02:08:01;18.83;;;17.92;;
18021;SDS011;9136;48.822;7.966;2023-06-19T02:10:49;18.08;;;17.23;;
18021;SDS011;9136;48.822;7.966;2023-06-19T02:13:38;16.92;;;16.10;;
18021;SDS011;9136;48.822;7.966;2023-06-19T02:16:28;19.45;;;18.55;;
18021;SDS011;9136;48.822;7.966;2023-06-19T02:19:16;17.10;;;16.33;;
18021;SDS011;9136;48.822;7.966;2023-06-19T02:22:05;18.20;;;17.30;;
18021;SDS011;9136;48.822;7.966;2023-06-19T02:24:53;19.65;;;18.38;;
18021;SDS011;9136;48.822;7.966;2023-06-19T02:27:41;17.65;;;16.85;;
18021;SDS011;9136;48.822;7.966;2023-06-19T02:30:32;17.85;;;16.90;;
18021;SDS011;9136;48.822;7.966;2023-06-19T02:33:21;16.52;;;15.73;;
18021;SDS011;9136;48.822;7.966;2023-06-19T02:36:11;17.92;;;16.70;;
18021;SDS011;9136;48.822;7.966;2023-06-19T02:38:59;18.40;;;17.45;;
18021;SDS011;9136;48.822;7.966;2023-06-19T02:41:46;18.98;;;17.92;;
18021;SDS011;9136;48.822;7.966;2023-06-19T02:44:34;17.48;;;16.67;;
18021;SDS011;9136;48.822;7.966;2023-06-19T02:47:24;19.50;;;18.50;;
18021;SDS011;9136;48.822;7.966;2023-06-19T02:50:12;20.25;;;19.25;;
18021;SDS011;9136;48.822;7.966;2023-06-19T02:52:59;19.80;;;18.83;;
18021;SDS011;9136;48.822;7.966;2023-06-19T02:55:47;17.98;;;17.17;;
18021;SDS011;9136;48.822;7.966;2023-06-19T02:58:35;18.17;;;17.38;;
18021;SDS011;9136;48.822;7.966;2023-06-19T03:01:24;18.88;;;17.98;;
18021;SDS011;9136;48.822;7.966;2023-06-19T03:04:13;18.65;;;17.73;;
18021;SDS011;9136;48.822;7.966;2023-06-19T03:07:01;18.60;;;17.70;;
18021;SDS011;9136;48.822;7.966;2023-06-19T03:09:50;19.67;;;18.63;;
18021;SDS011;9136;48.822;7.966;2023-06-19T03:12:37;18.52;;;17.63;;
18021;SDS011;9136;48.822;7.966;2023-06-19T03:15:27;19.10;;;18.17;;
18021;SDS011;9136;48.822;7.966;2023-06-19T03:18:15;17.25;;;16.35;;
18021;SDS011;9136;48.822;7.966;2023-06-19T03:21:04;17.45;;;16.55;;
18021;SDS011;9136;48.822;7.966;2023-06-19T03:23:52;18.13;;;17.13;;
18021;SDS011;9136;48.822;7.966;2023-06-19T03:26:40;17.80;;;16.90;;
18021;SDS011;9136;48.822;7.966;2023-06-19T03:29:29;18.70;;;17.80;;
18021;SDS011;9136;48.822;7.966;2023-06-19T03:32:17;17.55;;;16.65;;
18021;SDS011;9136;48.822;7.966;2023-06-19T03:35:07;18.23;;;17.33;;
18021;SDS011;9136;48.822;7.966;2023-06-19T03:37:57;18.07;;;17.13;;
18021;SDS011;9136;48.822;7.966;2023-06-19T03:40:46;17.92;;;17.10;;
18021;SDS011;9136;48.822;7.966;2023-06-19T03:43:34;17.65;;;16.85;;
18021;SDS011;9136;48.822;7.966;2023-06-19T03:46:22;18.83;;;17.88;;
18021;SDS011;9136;48.822;7.966;2023-06-19T03:49:09;17.33;;;16.52;;
18021;SDS011;9136;48.822;7.966;2023-06-19T03:51:57;18.70;;;17.88;;
18021;SDS011;9136;48.822;7.966;2023-06-19T03:54:47;18.77;;;16.90;;
18021;SDS011;9136;48.822;7.966;2023-06-19T03:57:35;17.52;;;16.63;;
18021;SDS011;9136;48.822;7.966;2023-06-19T04:00:23;18.55;;;17.65;;
18021;SDS011;9136;48.822;7.966;2023-06-19T04:03:11;18.00;;;17.20;;
18021;SDS011;9136;48.822;7.966;2023-06-19T04:05:59;19.02;;;18.13;;
18021;SDS011;9136;48.822;7.966;2023-06-19T04:08:46;19.25;;;18.35;;
18021;SDS011;9136;48.822;7.966;2023-06-19T04:11:37;18.38;;;17.52;;
18021;SDS011;9136;48.822;7.966;2023-06-19T04:14:25;18.50;;;17.60;;
18021;SDS011;9136;48.822;7.966;2023-06-19T04:17:13;18.73;;;17.85;;
18021;SDS011;9136;48.822;7.966;2023-06-19T04:20:01;19.00;;;18.10;;
18021;SDS011;9136;48.822;7.966;2023-06-19T04:22:52;18.20;;;17.33;;
18021;SDS011;9136;48.822;7.966;2023-06-19T04:25:40;17.38;;;16.58;;
18021;SDS011;9136;48.822;7.966;2023-06-19T04:28:29;17.75;;;16.95;;
18021;SDS011;9136;48.822;7.966;2023-06-19T04:31:17;18.52;;;17.52;;
18021;SDS011;9136;48.822;7.966;2023-06-19T04:34:05;18.33;;;17.48;;
18021;SDS011;9136;48.822;7.966;2023-06-19T04:36:53;19.60;;;18.60;;
18021;SDS011;9136;48.822;7.966;2023-06-19T04:39:44;16.05;;;15.35;;
18021;SDS011;9136;48.822;7.966;2023-06-19T04:42:32;17.40;;;16.63;;
18021;SDS011;9136;48.822;7.966;2023-06-19T04:45:25;17.98;;;17.17;;
18021;SDS011;9136;48.822;7.966;2023-06-19T04:48:19;19.50;;;18.35;;
18021;SDS011;9136;48.822;7.966;2023-06-19T04:51:10;18.05;;;17.15;;
18021;SDS011;9136;48.822;7.966;2023-06-19T04:53:58;16.85;;;16.05;;
18021;SDS011;9136;48.822;7.966;2023-06-19T04:56:46;17.55;;;16.73;;
18021;SDS011;9136;48.822;7.966;2023-06-19T04:59:34;18.17;;;17.20;;
18021;SDS011;9136;48.822;7.966;2023-06-19T05:02:24;17.83;;;16.98;;
18021;SDS011;9136;48.822;7.966;2023-06-19T05:05:14;17.23;;;16.33;;
18021;SDS011;9136;48.822;7.966;2023-06-19T05:08:02;16.52;;;15.82;;
18021;SDS011;9136;48.822;7.966;2023-06-19T05:10:50;18.30;;;17.40;;
18021;SDS011;9136;48.822;7.966;2023-06-19T05:13:39;17.23;;;16.42;;
18021;SDS011;9136;48.822;7.966;2023-06-19T05:16:27;17.60;;;16.80;;
18021;SDS011;9136;48.822;7.966;2023-06-19T05:19:16;17.35;;;16.52;;
18021;SDS011;9136;48.822;7.966;2023-06-19T05:22:04;19.00;;;18.00;;
18021;SDS011;9136;48.822;7.966;2023-06-19T05:24:54;17.15;;;16.35;;
18021;SDS011;9136;48.822;7.966;2023-06-19T05:27:42;16.63;;;15.93;;
18021;SDS011;9136;48.822;7.966;2023-06-19T05:30:30;16.95;;;16.15;;
18021;SDS011;9136;48.822;7.966;2023-06-19T05:33:18;18.00;;;17.10;;
18021;SDS011;9136;48.822;7.966;2023-06-19T05:36:11;17.30;;;16.42;;
18021;SDS011;9136;48.822;7.966;2023-06-19T05:38:58;17.20;;;16.40;;
18021;SDS011;9136;48.822;7.966;2023-06-19T05:41:49;17.05;;;16.25;;
18021;SDS011;9136;48.822;7.966;2023-06-19T05:44:37;16.65;;;15.90;;
18021;SDS011;9136;48.822;7.966;2023-06-19T05:47:26;18.42;;;16.77;;
18021;SDS011;9136;48.822;7.966;2023-06-19T05:50:14;16.55;;;15.80;;
18021;SDS011;9136;48.822;7.966;2023-06-19T05:53:04;16.90;;;16.13;;
18021;SDS011;9136;48.822;7.966;2023-06-19T05:55:52;18.15;;;17.35;;
18021;SDS011;9136;48.822;7.966;2023-06-19T05:58:40;15.57;;;14.88;;
18021;SDS011;9136;48.822;7.966;2023-06-19T06:01:28;18.00;;;17.20;;
18021;SDS011;9136;48.822;7.966;2023-06-19T06:04:16;17.48;;;16.67;;
18021;SDS011;9136;48.822;7.966;2023-06-19T06:07:04;17.55;;;16.75;;
18021;SDS011;9136;48.822;7.966;2023-06-19T06:09:54;17.90;;;17.08;;
18021;SDS011;9136;48.822;7.966;2023-06-19T06:12:42;17.92;;;17.13;;
18021;SDS011;9136;48.822;7.966;2023-06-19T06:15:30;19.75;;;18.48;;
18021;SDS011;9136;48.822;7.966;2023-06-19T06:18:21;19.33;;;18.42;;
18021;SDS011;9136;48.822;7.966;2023-06-19T06:21:09;18.08;;;17.27;;
18021;SDS011;9136;48.822;7.966;2023-06-19T06:23:58;17.95;;;17.15;;
18021;SDS011;9136;48.822;7.966;2023-06-19T06:26:48;17.77;;;16.98;;
18021;SDS011;9136;48.822;7.966;2023-06-19T06:29:36;18.67;;;17.85;;
18021;SDS011;9136;48.822;7.966;2023-06-19T06:32:24;19.00;;;18.10;;
18021;SDS011;9136;48.822;7.966;2023-06-19T06:35:15;18.95;;;18.15;;
18021;SDS011;9136;48.822;7.966;2023-06-19T06:38:02;17.55;;;16.70;;
18021;SDS011;9136;48.822;7.966;2023-06-19T06:40:50;17.77;;;16.95;;
18021;SDS011;9136;48.822;7.966;2023-06-19T06:43:40;17.13;;;16.30;;
18021;SDS011;9136;48.822;7.966;2023-06-19T06:46:29;15.70;;;14.95;;
18021;SDS011;9136;48.822;7.966;2023-06-19T06:49:21;15.90;;;15.20;;
18021;SDS011;9136;48.822;7.966;2023-06-19T06:52:09;15.82;;;15.10;;
18021;SDS011;9136;48.822;7.966;2023-06-19T06:54:57;15.73;;;15.02;;
18021;SDS011;9136;48.822;7.966;2023-06-19T06:57:45;15.23;;;14.52;;
18021;SDS011;9136;48.822;7.966;2023-06-19T07:00:37;16.38;;;15.57;;
18021;SDS011;9136;48.822;7.966;2023-06-19T07:03:25;15.82;;;15.10;;
18021;SDS011;9136;48.822;7.966;2023-06-19T07:06:15;15.45;;;14.65;;
18021;SDS011;9136;48.822;7.966;2023-06-19T07:09:03;16.05;;;15.25;;
18021;SDS011;9136;48.822;7.966;2023-06-19T07:11:51;15.55;;;14.75;;
18021;SDS011;9136;48.822;7.966;2023-06-19T07:14:39;15.20;;;14.40;;
18021;SDS011;9136;48.822;7.966;2023-06-19T07:17:28;15.05;;;14.30;;
18021;SDS011;9136;48.822;7.966;2023-06-19T07:20:16;14.48;;;13.77;;
18021;SDS011;9136;48.822;7.966;2023-06-19T07:23:04;14.93;;;14.20;;
18021;SDS011;9136;48.822;7.966;2023-06-19T07:25:52;15.40;;;14.70;;
18021;SDS011;9136;48.822;7.966;2023-06-19T07:28:40;15.02;;;14.32;;
18021;SDS011;9136;48.822;7.966;2023-06-19T07:31:29;14.45;;;13.75;;
18021;SDS011;9136;48.822;7.966;2023-06-19T07:34:21;14.55;;;13.85;;
18021;SDS011;9136;48.822;7.966;2023-06-19T07:37:09;14.75;;;14.05;;
18021;SDS011;9136;48.822;7.966;2023-06-19T07:40:03;14.68;;;13.93;;
18021;SDS011;9136;48.822;7.966;2023-06-19T07:42:51;15.35;;;14.65;;
18021;SDS011;9136;48.822;7.966;2023-06-19T07:45:39;14.40;;;13.80;;
18021;SDS011;9136;48.822;7.966;2023-06-19T07:48:27;15.00;;;14.30;;
18021;SDS011;9136;48.822;7.966;2023-06-19T07:51:18;16.13;;;15.35;;
18021;SDS011;9136;48.822;7.966;2023-06-19T07:54:06;16.10;;;15.25;;
18021;SDS011;9136;48.822;7.966;2023-06-19T07:56:53;13.82;;;13.23;;
18021;SDS011;9136;48.822;7.966;2023-06-19T07:59:42;16.25;;;15.45;;
18021;SDS011;9136;48.822;7.966;2023-06-19T08:02:30;14.40;;;13.43;;
18021;SDS011;9136;48.822;7.966;2023-06-19T08:05:18;14.85;;;14.15;;
18021;SDS011;9136;48.822;7.966;2023-06-19T08:08:08;15.38;;;14.43;;
18021;SDS011;9136;48.822;7.966;2023-06-19T08:10:55;14.68;;;13.98;;
18021;SDS011;9136;48.822;7.966;2023-06-19T08:13:43;13.95;;;13.35;;
18021;SDS011;9136;48.822;7.966;2023-06-19T08:16:31;15.38;;;14.60;;
18021;SDS011;9136;48.822;7.966;2023-06-19T08:19:19;15.25;;;14.50;;
18021;SDS011;9136;48.822;7.966;2023-06-19T08:22:06;15.52;;;14.73;;
18021;SDS011;9136;48.822;7.966;2023-06-19T08:24:56;15.40;;;14.60;;
18021;SDS011;9136;48.822;7.966;2023-06-19T08:27:44;14.38;;;13.68;;
18021;SDS011;9136;48.822;7.966;2023-06-19T08:30:32;15.73;;;14.93;;
18021;SDS011;9136;48.822;7.966;2023-06-19T08:33:20;14.68;;;13.98;;
18021;SDS011;9136;48.822;7.966;2023-06-19T08:36:08;14.52;;;13.80;;
18021;SDS011;9136;48.822;7.966;2023-06-19T08:38:56;12.90;;;12.30;;
18021;SDS011;9136;48.822;7.966;2023-06-19T08:41:46;13.15;;;12.50;;
18021;SDS011;9136;48.822;7.966;2023-06-19T08:44:34;13.50;;;12.90;;
18021;SDS011;9136;48.822;7.966;2023-06-19T08:47:22;14.38;;;13.65;;
18021;SDS011;9136;48.822;7.966;2023-06-19T08:50:16;14.75;;;14.05;;
18021;SDS011;9136;48.822;7.966;2023-06-19T08:53:04;13.07;;;12.38;;
18021;SDS011;9136;48.822;7.966;2023-06-19T08:55:52;14.18;;;13.57;;
18021;SDS011;9136;48.822;7.966;2023-06-19T08:58:41;13.20;;;12.60;;
18021;SDS011;9136;48.822;7.966;2023-06-19T09:01:30;12.50;;;11.98;;
18021;SDS011;9136;48.822;7.966;2023-06-19T09:04:19;13.50;;;12.85;;
18021;SDS011;9136;48.822;7.966;2023-06-19T09:07:08;13.32;;;12.73;;
18021;SDS011;9136;48.822;7.966;2023-06-19T09:09:56;13.75;;;12.95;;
18021;SDS011;9136;48.822;7.966;2023-06-19T09:12:44;14.07;;;13.45;;
18021;SDS011;9136;48.822;7.966;2023-06-19T09:15:44;13.07;;;12.48;;
18021;SDS011;9136;48.822;7.966;2023-06-19T09:18:41;13.52;;;12.82;;
18021;SDS011;9136;48.822;7.966;2023-06-19T09:21:30;13.98;;;13.27;;
18021;SDS011;9136;48.822;7.966;2023-06-19T09:24:17;13.18;;;12.52;;
18021;SDS011;9136;48.822;7.966;2023-06-19T09:27:09;14.32;;;13.57;;
18021;SDS011;9136;48.822;7.966;2023-06-19T09:30:00;14.65;;;13.60;;
18021;SDS011;9136;48.822;7.966;2023-06-19T09:32:50;12.95;;;12.35;;
18021;SDS011;9136;48.822;7.966;2023-06-19T09:35:38;14.00;;;13.30;;
18021;SDS011;9136;48.822;7.966;2023-06-19T09:38:26;13.43;;;12.82;;
18021;SDS011;9136;48.822;7.966;2023-06-19T09:41:16;12.52;;;11.93;;
18021;SDS011;9136;48.822;7.966;2023-06-19T09:44:05;12.52;;;11.93;;
18021;SDS011;9136;48.822;7.966;2023-06-19T09:46:58;13.48;;;12.88;;
18021;SDS011;9136;48.822;7.966;2023-06-19T09:49:53;13.52;;;12.85;;
18021;SDS011;9136;48.822;7.966;2023-06-19T09:52:42;13.80;;;12.95;;
18021;SDS011;9136;48.822;7.966;2023-06-19T09:55:31;13.30;;;12.60;;
18021;SDS011;9136;48.822;7.966;2023-06-19T09:58:20;14.07;;;13.38;;
18021;SDS011;9136;48.822;7.966;2023-06-19T10:01:11;12.85;;;12.25;;
18021;SDS011;9136;48.822;7.966;2023-06-19T10:04:02;13.43;;;12.82;;
18021;SDS011;9136;48.822;7.966;2023-06-19T10:06:52;14.10;;;12.98;;
18021;SDS011;9136;48.822;7.966;2023-06-19T10:09:54;14.07;;;13.35;;
18021;SDS011;9136;48.822;7.966;2023-06-19T10:12:43;13.68;;;12.98;;
18021;SDS011;9136;48.822;7.966;2023-06-19T10:15:32;12.90;;;12.30;;
18021;SDS011;9136;48.822;7.966;2023-06-19T10:18:22;14.10;;;13.38;;
18021;SDS011;9136;48.822;7.966;2023-06-19T10:21:15;13.65;;;13.00;;
18021;SDS011;9136;48.822;7.966;2023-06-19T10:24:05;13.60;;;12.80;;
18021;SDS011;9136;48.822;7.966;2023-06-19T10:26:56;13.27;;;12.38;;
18021;SDS011;9136;48.822;7.966;2023-06-19T10:29:51;12.50;;;11.90;;
18021;SDS011;9136;48.822;7.966;2023-06-19T10:32:40;11.95;;;11.38;;
18021;SDS011;9136;48.822;7.966;2023-06-19T10:35:28;11.90;;;11.38;;
18021;SDS011;9136;48.822;7.966;2023-06-19T10:38:16;12.23;;;11.68;;
18021;SDS011;9136;48.822;7.966;2023-06-19T10:41:05;11.80;;;11.30;;
18021;SDS011;9136;48.822;7.966;2023-06-19T10:44:04;11.90;;;11.32;;
18021;SDS011;9136;48.822;7.966;2023-06-19T10:46:58;11.30;;;10.80;;
18021;SDS011;9136;48.822;7.966;2023-06-19T10:49:48;11.00;;;10.50;;
18021;SDS011;9136;48.822;7.966;2023-06-19T10:52:38;11.85;;;11.35;;
18021;SDS011;9136;48.822;7.966;2023-06-19T10:55:27;11.23;;;10.73;;
18021;SDS011;9136;48.822;7.966;2023-06-19T10:58:16;11.10;;;10.60;;
18021;SDS011;9136;48.822;7.966;2023-06-19T11:01:07;11.15;;;10.65;;
18021;SDS011;9136;48.822;7.966;2023-06-19T11:03:55;12.80;;;12.20;;
18021;SDS011;9136;48.822;7.966;2023-06-19T11:06:44;11.75;;;11.23;;
18021;SDS011;9136;48.822;7.966;2023-06-19T11:09:32;11.65;;;10.68;;
18021;SDS011;9136;48.822;7.966;2023-06-19T11:12:22;12.13;;;11.50;;
18021;SDS011;9136;48.822;7.966;2023-06-19T11:15:12;10.63;;;10.20;;
18021;SDS011;9136;48.822;7.966;2023-06-19T11:18:01;11.25;;;10.73;;
18021;SDS011;9136;48.822;7.966;2023-06-19T11:20:50;10.98;;;10.38;;
18021;SDS011;9136;48.822;7.966;2023-06-19T11:23:38;9.93;;;9.48;;
18021;SDS011;9136;48.822;7.966;2023-06-19T11:26:26;10.98;;;10.45;;
18021;SDS011;9136;48.822;7.966;2023-06-19T11:29:15;11.07;;;10.57;;
18021;SDS011;9136;48.822;7.966;2023-06-19T11:32:06;11.23;;;10.50;;
18021;SDS011;9136;48.822;7.966;2023-06-19T11:34:56;10.77;;;10.27;;
18021;SDS011;9136;48.822;7.966;2023-06-19T11:37:45;11.07;;;10.57;;
18021;SDS011;9136;48.822;7.966;2023-06-19T11:40:41;10.05;;;9.63;;
18021;SDS011;9136;48.822;7.966;2023-06-19T11:43:29;10.57;;;10.07;;
18021;SDS011;9136;48.822;7.966;2023-06-19T11:46:18;10.68;;;10.18;;
18021;SDS011;9136;48.822;7.966;2023-06-19T11:49:10;12.13;;;11.40;;
18021;SDS011;9136;48.822;7.966;2023-06-19T11:51:58;10.32;;;9.82;;
18021;SDS011;9136;48.822;7.966;2023-06-19T11:54:46;9.38;;;8.98;;
18021;SDS011;9136;48.822;7.966;2023-06-19T11:57:34;10.90;;;10.38;;
18021;SDS011;9136;48.822;7.966;2023-06-19T12:00:22;11.43;;;10.93;;
18021;SDS011;9136;48.822;7.966;2023-06-19T12:03:10;11.10;;;10.55;;
18021;SDS011;9136;48.822;7.966;2023-06-19T12:05:59;10.20;;;9.70;;
18021;SDS011;9136;48.822;7.966;2023-06-19T12:08:47;11.05;;;10.55;;
18021;SDS011;9136;48.822;7.966;2023-06-19T12:11:35;10.48;;;10.00;;
18021;SDS011;9136;48.822;7.966;2023-06-19T12:14:23;10.82;;;10.32;;
18021;SDS011;9136;48.822;7.966;2023-06-19T12:17:11;10.25;;;9.75;;
18021;SDS011;9136;48.822;7.966;2023-06-19T12:19:59;10.60;;;10.10;;
18021;SDS011;9136;48.822;7.966;2023-06-19T12:22:48;10.80;;;10.30;;
18021;SDS011;9136;48.822;7.966;2023-06-19T12:25:36;10.32;;;9.82;;
18021;SDS011;9136;48.822;7.966;2023-06-19T12:28:24;10.82;;;10.32;;
18021;SDS011;9136;48.822;7.966;2023-06-19T12:31:11;10.82;;;10.27;;
18021;SDS011;9136;48.822;7.966;2023-06-19T12:34:00;10.07;;;9.57;;
18021;SDS011;9136;48.822;7.966;2023-06-19T12:36:48;10.60;;;10.10;;
18021;SDS011;9136;48.822;7.966;2023-06-19T12:39:38;10.55;;;10.05;;
18021;SDS011;9136;48.822;7.966;2023-06-19T12:42:27;11.70;;;11.10;;
18021;SDS011;9136;48.822;7.966;2023-06-19T12:45:15;11.52;;;10.93;;
18021;SDS011;9136;48.822;7.966;2023-06-19T12:48:04;10.90;;;10.25;;
18021;SDS011;9136;48.822;7.966;2023-06-19T12:50:52;11.45;;;10.95;;
18021;SDS011;9136;48.822;7.966;2023-06-19T12:53:40;12.90;;;12.20;;
18021;SDS011;9136;48.822;7.966;2023-06-19T12:56:29;12.73;;;11.70;;
18021;SDS011;9136;48.822;7.966;2023-06-19T12:59:17;11.23;;;10.73;;
18021;SDS011;9136;48.822;7.966;2023-06-19T13:02:05;13.25;;;12.55;;
18021;SDS011;9136;48.822;7.966;2023-06-19T13:04:53;11.27;;;10.68;;
18021;SDS011;9136;48.822;7.966;2023-06-19T13:07:41;10.70;;;10.20;;
18021;SDS011;9136;48.822;7.966;2023-06-19T13:10:29;11.30;;;10.80;;
18021;SDS011;9136;48.822;7.966;2023-06-19T13:13:20;10.85;;;10.35;;
18021;SDS011;9136;48.822;7.966;2023-06-19T13:16:08;11.63;;;11.02;;
18021;SDS011;9136;48.822;7.966;2023-06-19T13:18:56;11.85;;;11.23;;
18021;SDS011;9136;48.822;7.966;2023-06-19T13:21:44;11.13;;;10.52;;
18021;SDS011;9136;48.822;7.966;2023-06-19T13:24:31;11.77;;;11.18;;
18021;SDS011;9136;48.822;7.966;2023-06-19T13:27:19;10.85;;;10.35;;
18021;SDS011;9136;48.822;7.966;2023-06-19T13:30:09;12.13;;;11.43;;
18021;SDS011;9136;48.822;7.966;2023-06-19T13:32:57;11.95;;;11.45;;
18021;SDS011;9136;48.822;7.966;2023-06-19T13:35:45;11.40;;;10.90;;
18021;SDS011;9136;48.822;7.966;2023-06-19T13:38:33;11.93;;;11.32;;
18021;SDS011;9136;48.822;7.966;2023-06-19T13:41:21;10.93;;;10.43;;
18021;SDS011;9136;48.822;7.966;2023-06-19T13:44:09;11.68;;;11.15;;
18021;SDS011;9136;48.822;7.966;2023-06-19T13:47:00;11.93;;;11.23;;
18021;SDS011;9136;48.822;7.966;2023-06-19T13:49:47;11.52;;;10.75;;
18021;SDS011;9136;48.822;7.966;2023-06-19T13:52:35;11.82;;;11.18;;
18021;SDS011;9136;48.822;7.966;2023-06-19T13:55:23;10.77;;;10.27;;
18021;SDS011;9136;48.822;7.966;2023-06-19T13:58:11;11.40;;;10.90;;
18021;SDS011;9136;48.822;7.966;2023-06-19T14:00:59;10.68;;;10.07;;
18021;SDS011;9136;48.822;7.966;2023-06-19T14:03:48;12.50;;;11.90;;
18021;SDS011;9136;48.822;7.966;2023-06-19T14:06:36;11.07;;;9.43;;
18021;SDS011;9136;48.822;7.966;2023-06-19T14:09:24;9.65;;;9.20;;
18021;SDS011;9136;48.822;7.966;2023-06-19T14:12:12;9.60;;;9.10;;
18021;SDS011;9136;48.822;7.966;2023-06-19T14:15:00;8.82;;;8.43;;
18021;SDS011;9136;48.822;7.966;2023-06-19T14:17:48;8.88;;;8.43;;
18021;SDS011;9136;48.822;7.966;2023-06-19T14:20:38;8.13;;;7.72;;
18021;SDS011;9136;48.822;7.966;2023-06-19T14:23:27;9.60;;;9.00;;
18021;SDS011;9136;48.822;7.966;2023-06-19T14:26:17;9.30;;;8.80;;
18021;SDS011;9136;48.822;7.966;2023-06-19T14:29:04;8.93;;;8.52;;
18021;SDS011;9136;48.822;7.966;2023-06-19T14:31:54;10.45;;;9.75;;
18021;SDS011;9136;48.822;7.966;2023-06-19T14:34:41;10.25;;;9.75;;
18021;SDS011;9136;48.822;7.966;2023-06-19T14:37:31;10.55;;;9.98;;
18021;SDS011;9136;48.822;7.966;2023-06-19T14:40:18;10.85;;;10.27;;
18021;SDS011;9136;48.822;7.966;2023-06-19T14:43:07;10.88;;;10.27;;
18021;SDS011;9136;48.822;7.966;2023-06-19T14:45:56;11.00;;;10.50;;
18021;SDS011;9136;48.822;7.966;2023-06-19T14:48:43;11.82;;;11.20;;
18021;SDS011;9136;48.822;7.966;2023-06-19T14:51:31;10.68;;;10.25;;
18021;SDS011;9136;48.822;7.966;2023-06-19T14:54:20;12.02;;;11.43;;
18021;SDS011;9136;48.822;7.966;2023-06-19T14:57:08;11.50;;;10.93;;
18021;SDS011;9136;48.822;7.966;2023-06-19T14:59:56;11.93;;;11.32;;
18021;SDS011;9136;48.822;7.966;2023-06-19T15:02:44;12.75;;;12.10;;
18021;SDS011;9136;48.822;7.966;2023-06-19T15:05:32;12.35;;;11.75;;
18021;SDS011;9136;48.822;7.966;2023-06-19T15:08:20;12.18;;;11.57;;
18021;SDS011;9136;48.822;7.966;2023-06-19T15:11:11;12.57;;;11.98;;
18021;SDS011;9136;48.822;7.966;2023-06-19T15:13:59;11.80;;;11.30;;
18021;SDS011;9136;48.822;7.966;2023-06-19T15:16:47;11.80;;;11.20;;
18021;SDS011;9136;48.822;7.966;2023-06-19T15:19:35;12.07;;;11.38;;
18021;SDS011;9136;48.822;7.966;2023-06-19T15:22:22;13.25;;;12.50;;
18021;SDS011;9136;48.822;7.966;2023-06-19T15:25:10;11.15;;;10.65;;
18021;SDS011;9136;48.822;7.966;2023-06-19T15:27:59;12.02;;;11.32;;
18021;SDS011;9136;48.822;7.966;2023-06-19T15:30:48;11.55;;;10.82;;
18021;SDS011;9136;48.822;7.966;2023-06-19T15:33:36;11.40;;;10.80;;
18021;SDS011;9136;48.822;7.966;2023-06-19T15:36:23;11.13;;;10.50;;
18021;SDS011;9136;48.822;7.966;2023-06-19T15:39:11;10.70;;;10.20;;
18021;SDS011;9136;48.822;7.966;2023-06-19T15:41:59;10.57;;;10.07;;
18021;SDS011;9136;48.822;7.966;2023-06-19T15:44:48;11.27;;;10.77;;
18021;SDS011;9136;48.822;7.966;2023-06-19T15:47:36;11.93;;;11.23;;
18021;SDS011;9136;48.822;7.966;2023-06-19T15:50:24;10.95;;;10.35;;
18021;SDS011;9136;48.822;7.966;2023-06-19T15:53:12;11.10;;;10.02;;
18021;SDS011;9136;48.822;7.966;2023-06-19T15:56:00;10.23;;;9.52;;
18021;SDS011;9136;48.822;7.966;2023-06-19T15:58:47;9.43;;;9.00;;
18021;SDS011;9136;48.822;7.966;2023-06-19T16:01:38;9.80;;;9.30;;
18021;SDS011;9136;48.822;7.966;2023-06-19T16:04:26;9.65;;;9.25;;
18021;SDS011;9136;48.822;7.966;2023-06-19T16:07:13;10.07;;;9.57;;
18021;SDS011;9136;48.822;7.966;2023-06-19T16:10:01;10.35;;;9.80;;
18021;SDS011;9136;48.822;7.966;2023-06-19T16:12:49;10.55;;;9.95;;
18021;SDS011;9136;48.822;7.966;2023-06-19T16:15:37;10.00;;;9.60;;
18021;SDS011;9136;48.822;7.966;2023-06-19T16:18:26;10.40;;;9.85;;
18021;SDS011;9136;48.822;7.966;2023-06-19T16:21:14;11.02;;;10.43;;
18021;SDS011;9136;48.822;7.966;2023-06-19T16:24:03;10.68;;;10.18;;
18021;SDS011;9136;48.822;7.966;2023-06-19T16:26:51;11.75;;;10.98;;
18021;SDS011;9136;48.822;7.966;2023-06-19T16:29:41;11.43;;;10.82;;
18021;SDS011;9136;48.822;7.966;2023-06-19T16:32:29;11.52;;;10.88;;
18021;SDS011;9136;48.822;7.966;2023-06-19T16:35:19;11.73;;;11.02;;
18021;SDS011;9136;48.822;7.966;2023-06-19T16:38:08;11.60;;;10.85;;
18021;SDS011;9136;48.822;7.966;2023-06-19T16:40:57;10.50;;;10.00;;
18021;SDS011;9136;48.822;7.966;2023-06-19T16:43:45;11.43;;;10.93;;
18021;SDS011;9136;48.822;7.966;2023-06-19T16:46:33;10.80;;;10.30;;
18021;SDS011;9136;48.822;7.966;2023-06-19T16:49:21;10.35;;;9.85;;
18021;SDS011;9136;48.822;7.966;2023-06-19T16:52:10;11.93;;;10.55;;
18021;SDS011;9136;48.822;7.966;2023-06-19T16:54:58;10.38;;;9.88;;
18021;SDS011;9136;48.822;7.966;2023-06-19T16:57:46;10.15;;;9.65;;